KFTW METAR and TAF | Updated Today

KFTW METAR

Fort Worth Meacham International Airport

Observation time: 45 min. ago

KFTW 302053Z 32006KT 10SM CLR 09/M06 A3041 RMK AO2 SLP300 T00941056 55011

Need help? Read our tutorial on how to read METARs or read the parsed version below.

Fort Worth Meacham International Airport (KFTW) METAR

  • Weather conditions on Wed, 30 Nov 2022 20:53:00 +0000 (45 min. ago):
  • Present conditions: Dry
  • Clouds: Clear skies
  • Visibility: 16093 meters
  • Wind: 320 degrees at 6 knots
  • Temperature: 9 celsius
  • Dew point: -6 celsius
  • Pressure: 30.41 inHg
  • Remarks: AO2 SLP300 T00941056 55011


Useful to know...

KFTW TAF

Fort Worth Meacham International Airport

KFTW 302102Z 3021/0118 02009KT P6SM SCT250 FM302300 05005KT P6SM SCT250 FM011200 12009KT P6SM BKN250
Observation time: 36 min. ago
Need help? Read our tutorial on how to read TAFs or read the parsed version below.

Parsed version of TAF for Fort Worth Meacham International Airport (KFTW)

  • From 30 November at 21:00 UTC, to day 01 of the month at 18:00 UTC
  • Clouds: Scattered at 7620 meters
  • Wind: 20 degrees at 9
  • From day 30 of the month at 23:00 UTC
  • Clouds: Scattered at 7620 meters
  • Wind: 50 degrees at 5
  • From day 1 of the month at 12:00 UTC
  • Clouds: Broken sky at 7620 meters
  • Wind: 120 degrees at 9